sensor_id;sensor_type;location;lat;lon;timestamp;pressure;altitude;pressure_sealevel;temperature;humidity
64076;BME280;50327;51.328;12.324;2023-02-19T00:01:26;52891.84;;;-144.47;100.00
64076;BME280;50327;51.328;12.324;2023-02-19T00:03:55;52919.66;;;-144.47;100.00
64076;BME280;50327;51.328;12.324;2023-02-19T00:06:22;52909.72;;;-144.47;100.00
64076;BME280;50327;51.328;12.324;2023-02-19T00:08:47;52862.06;;;-144.47;100.00
64076;BME280;50327;51.328;12.324;2023-02-19T00:11:16;52889.84;;;-144.47;100.00
64076;BME280;50327;51.328;12.324;2023-02-19T00:13:43;52917.66;;;-144.47;100.00
64076;BME280;50327;51.328;12.324;2023-02-19T00:16:15;52913.69;;;-144.47;100.00
64076;BME280;50327;51.328;12.324;2023-02-19T00:18:42;52907.72;;;-144.47;100.00
64076;BME280;50327;51.328;12.324;2023-02-19T00:21:08;52883.91;;;-144.47;100.00
64076;BME280;50327;51.328;12.324;2023-02-19T00:23:34;52915.69;;;-144.47;100.00
64076;BME280;50327;51.328;12.324;2023-02-19T00:26:04;52911.69;;;-144.47;100.00
64076;BME280;50327;51.328;12.324;2023-02-19T00:28:29;52915.69;;;-144.47;100.00
64076;BME280;50327;51.328;12.324;2023-02-19T00:30:55;52907.72;;;-144.47;100.00
64076;BME280;50327;51.328;12.324;2023-02-19T00:33:20;52887.88;;;-144.47;100.00
64076;BME280;50327;51.328;12.324;2023-02-19T00:35:45;52887.88;;;-144.47;100.00
64076;BME280;50327;51.328;12.324;2023-02-19T00:38:11;52905.75;;;-144.47;100.00
64076;BME280;50327;51.328;12.324;2023-02-19T00:40:37;52923.63;;;-144.47;100.00
64076;BME280;50327;51.328;12.324;2023-02-19T00:43:03;52927.59;;;-144.47;100.00
64076;BME280;50327;51.328;12.324;2023-02-19T00:45:28;52927.59;;;-144.47;100.00
64076;BME280;50327;51.328;12.324;2023-02-19T00:47:54;52903.75;;;-144.47;100.00
64076;BME280;50327;51.328;12.324;2023-02-19T00:50:19;52905.75;;;-144.47;100.00
64076;BME280;50327;51.328;12.324;2023-02-19T00:52:44;52893.81;;;-144.47;100.00
64076;BME280;50327;51.328;12.324;2023-02-19T00:55:10;52903.75;;;-144.47;100.00
64076;BME280;50327;51.328;12.324;2023-02-19T00:57:35;52929.59;;;-144.47;100.00
64076;BME280;50327;51.328;12.324;2023-02-19T01:00:00;52895.81;;;-144.47;100.00
64076;BME280;50327;51.328;12.324;2023-02-19T01:02:26;52887.88;;;-144.47;100.00
64076;BME280;50327;51.328;12.324;2023-02-19T01:04:51;52923.63;;;-144.47;100.00
64076;BME280;50327;51.328;12.324;2023-02-19T01:07:17;52923.63;;;-144.47;100.00
64076;BME280;50327;51.328;12.324;2023-02-19T01:09:43;52923.63;;;-144.47;100.00
64076;BME280;50327;51.328;12.324;2023-02-19T01:12:08;52911.69;;;-144.47;100.00
64076;BME280;50327;51.328;12.324;2023-02-19T01:14:34;52887.88;;;-144.47;100.00
64076;BME280;50327;51.328;12.324;2023-02-19T01:16:59;52929.59;;;-144.47;100.00
64076;BME280;50327;51.328;12.324;2023-02-19T01:19:25;52907.72;;;-144.47;100.00
64076;BME280;50327;51.328;12.324;2023-02-19T01:21:50;52935.53;;;-144.47;100.00
64076;BME280;50327;51.328;12.324;2023-02-19T01:24:16;52929.59;;;-144.47;100.00
64076;BME280;50327;51.328;12.324;2023-02-19T01:26:41;52885.88;;;-144.47;100.00
64076;BME280;50327;51.328;12.324;2023-02-19T01:29:07;52909.72;;;-144.47;100.00
64076;BME280;50327;51.328;12.324;2023-02-19T01:31:33;52919.66;;;-144.47;100.00
64076;BME280;50327;51.328;12.324;2023-02-19T01:34:00;52899.78;;;-144.47;100.00
64076;BME280;50327;51.328;12.324;2023-02-19T01:36:27;52897.81;;;-144.47;100.00
64076;BME280;50327;51.328;12.324;2023-02-19T01:38:54;52925.59;;;-144.47;100.00
64076;BME280;50327;51.328;12.324;2023-02-19T01:41:22;52941.50;;;-144.47;100.00
64076;BME280;50327;51.328;12.324;2023-02-19T01:46:51;52939.50;;;-144.47;100.00
64076;BME280;50327;51.328;12.324;2023-02-19T01:49:35;52937.53;;;-144.47;100.00
64076;BME280;50327;51.328;12.324;2023-02-19T01:52:11;52937.53;;;-144.47;100.00
64076;BME280;50327;51.328;12.324;2023-02-19T01:54:39;52901.78;;;-144.47;100.00
64076;BME280;50327;51.328;12.324;2023-02-19T01:57:11;52925.59;;;-144.47;100.00
64076;BME280;50327;51.328;12.324;2023-02-19T01:59:37;52949.44;;;-144.47;100.00
64076;BME280;50327;51.328;12.324;2023-02-19T02:02:03;52939.50;;;-144.47;100.00
64076;BME280;50327;51.328;12.324;2023-02-19T02:04:30;52929.59;;;-144.47;100.00
64076;BME280;50327;51.328;12.324;2023-02-19T02:06:58;52907.72;;;-144.47;100.00
64076;BME280;50327;51.328;12.324;2023-02-19T02:09:27;52913.69;;;-144.47;100.00
64076;BME280;50327;51.328;12.324;2023-02-19T02:12:12;52939.50;;;-144.47;100.00
64076;BME280;50327;51.328;12.324;2023-02-19T02:14:40;52893.81;;;-144.47;100.00
64076;BME280;50327;51.328;12.324;2023-02-19T02:17:25;52919.66;;;-144.47;100.00
64076;BME280;50327;51.328;12.324;2023-02-19T02:22:45;52935.53;;;-144.47;100.00
64076;BME280;50327;51.328;12.324;2023-02-19T02:25:39;52921.63;;;-144.47;100.00
64076;BME280;50327;51.328;12.324;2023-02-19T02:28:52;52937.53;;;-144.47;100.00
64076;BME280;50327;51.328;12.324;2023-02-19T02:31:29;52951.44;;;-144.47;100.00
64076;BME280;50327;51.328;12.324;2023-02-19T02:36:40;52929.59;;;-144.47;100.00
64076;BME280;50327;51.328;12.324;2023-02-19T02:39:10;52919.66;;;-144.47;100.00
64076;BME280;50327;51.328;12.324;2023-02-19T02:41:41;52921.63;;;-144.47;100.00
64076;BME280;50327;51.328;12.324;2023-02-19T02:44:08;52939.50;;;-144.47;100.00
64076;BME280;50327;51.328;12.324;2023-02-19T02:46:34;52909.72;;;-144.47;100.00
64076;BME280;50327;51.328;12.324;2023-02-19T02:49:02;52903.75;;;-144.47;100.00
64076;BME280;50327;51.328;12.324;2023-02-19T02:51:32;52909.72;;;-144.47;100.00
64076;BME280;50327;51.328;12.324;2023-02-19T02:54:13;52951.44;;;-144.47;100.00
64076;BME280;50327;51.328;12.324;2023-02-19T02:56:59;52941.50;;;-144.47;100.00
64076;BME280;50327;51.328;12.324;2023-02-19T02:59:29;52955.41;;;-144.47;100.00
64076;BME280;50327;51.328;12.324;2023-02-19T03:02:06;52921.63;;;-144.47;100.00
64076;BME280;50327;51.328;12.324;2023-02-19T03:05:02;52915.69;;;-144.47;100.00
64076;BME280;50327;51.328;12.324;2023-02-19T03:08:09;52925.59;;;-144.47;100.00
64076;BME280;50327;51.328;12.324;2023-02-19T03:13:04;52907.72;;;-144.47;100.00
64076;BME280;50327;51.328;12.324;2023-02-19T03:15:55;52925.59;;;-144.47;100.00
64076;BME280;50327;51.328;12.324;2023-02-19T03:18:41;52929.59;;;-144.47;100.00
64076;BME280;50327;51.328;12.324;2023-02-19T03:21:28;52919.66;;;-144.47;100.00
64076;BME280;50327;51.328;12.324;2023-02-19T03:23:55;52939.50;;;-144.47;100.00
64076;BME280;50327;51.328;12.324;2023-02-19T03:26:40;52937.53;;;-144.47;100.00
64076;BME280;50327;51.328;12.324;2023-02-19T03:29:08;52905.75;;;-144.47;100.00
64076;BME280;50327;51.328;12.324;2023-02-19T03:31:51;52931.56;;;-144.47;100.00
64076;BME280;50327;51.328;12.324;2023-02-19T03:34:31;52905.75;;;-144.47;100.00
64076;BME280;50327;51.328;12.324;2023-02-19T03:37:36;52933.56;;;-144.47;100.00
64076;BME280;50327;51.328;12.324;2023-02-19T03:40:00;52913.69;;;-144.47;100.00
64076;BME280;50327;51.328;12.324;2023-02-19T03:45:26;52917.66;;;-144.47;100.00
64076;BME280;50327;51.328;12.324;2023-02-19T03:48:01;52943.47;;;-144.47;100.00
64076;BME280;50327;51.328;12.324;2023-02-19T03:53:46;52941.50;;;-144.47;100.00
64076;BME280;50327;51.328;12.324;2023-02-19T03:56:46;52927.59;;;-144.47;100.00
64076;BME280;50327;51.328;12.324;2023-02-19T03:59:23;52935.53;;;-144.47;100.00
64076;BME280;50327;51.328;12.324;2023-02-19T04:01:55;52935.53;;;-144.47;100.00
64076;BME280;50327;51.328;12.324;2023-02-19T04:04:37;52943.47;;;-144.47;100.00
64076;BME280;50327;51.328;12.324;2023-02-19T04:07:05;52929.59;;;-144.47;100.00
64076;BME280;50327;51.328;12.324;2023-02-19T04:09:37;52907.72;;;-144.47;100.00
64076;BME280;50327;51.328;12.324;2023-02-19T04:12:05;52921.63;;;-144.47;100.00
64076;BME280;50327;51.328;12.324;2023-02-19T04:14:35;52909.72;;;-144.47;100.00
64076;BME280;50327;51.328;12.324;2023-02-19T04:17:13;52923.63;;;-144.47;100.00
64076;BME280;50327;51.328;12.324;2023-02-19T04:19:42;52949.44;;;-144.47;100.00
64076;BME280;50327;51.328;12.324;2023-02-19T04:22:09;52905.75;;;-144.47;100.00
64076;BME280;50327;51.328;12.324;2023-02-19T04:24:46;52929.59;;;-144.47;100.00
64076;BME280;50327;51.328;12.324;2023-02-19T04:27:13;52939.50;;;-144.47;100.00
64076;BME280;50327;51.328;12.324;2023-02-19T04:29:38;52933.56;;;-144.47;100.00
64076;BME280;50327;51.328;12.324;2023-02-19T04:32:04;52947.47;;;-144.47;100.00
64076;BME280;50327;51.328;12.324;2023-02-19T04:34:29;52921.63;;;-144.47;100.00
64076;BME280;50327;51.328;12.324;2023-02-19T04:36:55;52933.56;;;-144.47;100.00
64076;BME280;50327;51.328;12.324;2023-02-19T04:39:20;52949.44;;;-144.47;100.00
64076;BME280;50327;51.328;12.324;2023-02-19T04:41:45;52951.44;;;-144.47;100.00
64076;BME280;50327;51.328;12.324;2023-02-19T04:44:11;52953.41;;;-144.47;100.00
64076;BME280;50327;51.328;12.324;2023-02-19T04:46:36;52937.53;;;-144.47;100.00
64076;BME280;50327;51.328;12.324;2023-02-19T04:49:02;52947.47;;;-144.47;100.00
64076;BME280;50327;51.328;12.324;2023-02-19T04:51:27;52939.50;;;-144.47;100.00
64076;BME280;50327;51.328;12.324;2023-02-19T04:53:52;52925.59;;;-144.47;100.00
64076;BME280;50327;51.328;12.324;2023-02-19T04:56:20;52931.56;;;-144.47;100.00
64076;BME280;50327;51.328;12.324;2023-02-19T04:58:45;52899.78;;;-144.47;100.00
64076;BME280;50327;51.328;12.324;2023-02-19T05:01:11;52935.53;;;-144.47;100.00
64076;BME280;50327;51.328;12.324;2023-02-19T05:03:36;52939.50;;;-144.47;100.00
64076;BME280;50327;51.328;12.324;2023-02-19T05:06:07;52939.50;;;-144.47;100.00
64076;BME280;50327;51.328;12.324;2023-02-19T05:08:33;52921.63;;;-144.47;100.00
64076;BME280;50327;51.328;12.324;2023-02-19T05:10:59;52945.47;;;-144.47;100.00
64076;BME280;50327;51.328;12.324;2023-02-19T05:13:26;52949.44;;;-144.47;100.00
64076;BME280;50327;51.328;12.324;2023-02-19T05:16:03;52961.34;;;-144.47;100.00
64076;BME280;50327;51.328;12.324;2023-02-19T05:18:29;52945.47;;;-144.47;100.00
64076;BME280;50327;51.328;12.324;2023-02-19T05:20:56;52971.28;;;-144.47;100.00
64076;BME280;50327;51.328;12.324;2023-02-19T05:23:23;52937.53;;;-144.47;100.00
64076;BME280;50327;51.328;12.324;2023-02-19T05:25:49;52957.38;;;-144.47;100.00
64076;BME280;50327;51.328;12.324;2023-02-19T05:28:15;52947.47;;;-144.47;100.00
64076;BME280;50327;51.328;12.324;2023-02-19T05:30:51;52905.75;;;-144.47;100.00
64076;BME280;50327;51.328;12.324;2023-02-19T05:33:19;52957.38;;;-144.47;100.00
64076;BME280;50327;51.328;12.324;2023-02-19T05:35:47;52935.53;;;-144.47;100.00
64076;BME280;50327;51.328;12.324;2023-02-19T05:38:13;52941.50;;;-144.47;100.00
64076;BME280;50327;51.328;12.324;2023-02-19T05:40:39;52927.59;;;-144.47;100.00
64076;BME280;50327;51.328;12.324;2023-02-19T05:43:06;52929.59;;;-144.47;100.00
64076;BME280;50327;51.328;12.324;2023-02-19T05:45:32;52939.50;;;-144.47;100.00
64076;BME280;50327;51.328;12.324;2023-02-19T05:47:58;52925.59;;;-144.47;100.00
64076;BME280;50327;51.328;12.324;2023-02-19T05:50:23;52973.28;;;-144.47;100.00
64076;BME280;50327;51.328;12.324;2023-02-19T05:52:49;52955.41;;;-144.47;100.00
64076;BME280;50327;51.328;12.324;2023-02-19T05:55:14;62369.91;;;-144.48;100.00
64076;BME280;50327;51.328;12.324;2023-02-19T05:57:41;62369.91;;;-144.48;100.00
64076;BME280;50327;51.328;12.324;2023-02-19T06:00:09;62369.91;;;-144.48;100.00
64076;BME280;50327;51.328;12.324;2023-02-19T06:02:35;62369.91;;;-144.48;100.00
64076;BME280;50327;51.328;12.324;2023-02-19T06:05:00;62369.91;;;-144.48;100.00
64076;BME280;50327;51.328;12.324;2023-02-19T06:07:26;62369.91;;;-144.48;100.00
64076;BME280;50327;51.328;12.324;2023-02-19T06:09:51;62369.91;;;-144.48;100.00
64076;BME280;50327;51.328;12.324;2023-02-19T06:12:17;62369.91;;;-144.48;100.00
64076;BME280;50327;51.328;12.324;2023-02-19T06:14:42;62369.91;;;-144.48;100.00
64076;BME280;50327;51.328;12.324;2023-02-19T06:17:07;62369.91;;;-144.48;100.00
64076;BME280;50327;51.328;12.324;2023-02-19T06:19:33;62369.91;;;-144.48;100.00
64076;BME280;50327;51.328;12.324;2023-02-19T06:21:58;62369.91;;;-144.48;100.00
64076;BME280;50327;51.328;12.324;2023-02-19T06:24:23;62369.91;;;-144.48;100.00
64076;BME280;50327;51.328;12.324;2023-02-19T06:26:49;62369.91;;;-144.48;100.00
64076;BME280;50327;51.328;12.324;2023-02-19T06:29:15;62369.91;;;-144.48;100.00
64076;BME280;50327;51.328;12.324;2023-02-19T06:31:41;62369.91;;;-144.48;100.00
64076;BME280;50327;51.328;12.324;2023-02-19T06:34:06;62369.91;;;-144.48;100.00
64076;BME280;50327;51.328;12.324;2023-02-19T06:36:32;62369.91;;;-144.48;100.00
64076;BME280;50327;51.328;12.324;2023-02-19T06:39:01;62369.91;;;-144.48;100.00
64076;BME280;50327;51.328;12.324;2023-02-19T06:41:26;62369.91;;;-144.48;100.00
64076;BME280;50327;51.328;12.324;2023-02-19T06:43:52;62369.91;;;-144.48;100.00
64076;BME280;50327;51.328;12.324;2023-02-19T06:46:17;62369.91;;;-144.48;100.00
64076;BME280;50327;51.328;12.324;2023-02-19T06:48:43;62369.91;;;-144.48;100.00
64076;BME280;50327;51.328;12.324;2023-02-19T06:51:17;62369.91;;;-144.48;100.00
64076;BME280;50327;51.328;12.324;2023-02-19T06:53:43;62369.91;;;-144.48;100.00
64076;BME280;50327;51.328;12.324;2023-02-19T06:56:40;62369.91;;;-144.48;100.00
64076;BME280;50327;51.328;12.324;2023-02-19T06:59:11;62369.91;;;-144.48;100.00
64076;BME280;50327;51.328;12.324;2023-02-19T07:01:37;62369.91;;;-144.48;100.00
64076;BME280;50327;51.328;12.324;2023-02-19T07:04:04;62369.91;;;-144.48;100.00
64076;BME280;50327;51.328;12.324;2023-02-19T07:06:29;62369.91;;;-144.48;100.00
64076;BME280;50327;51.328;12.324;2023-02-19T07:08:56;62369.91;;;-144.48;100.00
64076;BME280;50327;51.328;12.324;2023-02-19T07:11:22;62369.91;;;-144.48;100.00
64076;BME280;50327;51.328;12.324;2023-02-19T07:13:53;62369.91;;;-144.48;100.00
64076;BME280;50327;51.328;12.324;2023-02-19T07:16:19;62369.91;;;-144.48;100.00
64076;BME280;50327;51.328;12.324;2023-02-19T07:18:45;62369.91;;;-144.48;100.00
64076;BME280;50327;51.328;12.324;2023-02-19T07:21:12;62369.91;;;-144.48;100.00
64076;BME280;50327;51.328;12.324;2023-02-19T07:23:39;62369.91;;;-144.48;100.00
64076;BME280;50327;51.328;12.324;2023-02-19T07:26:08;62369.91;;;-144.48;100.00
64076;BME280;50327;51.328;12.324;2023-02-19T07:28:33;62369.91;;;-144.48;100.00
64076;BME280;50327;51.328;12.324;2023-02-19T07:31:03;62369.91;;;-144.48;100.00
64076;BME280;50327;51.328;12.324;2023-02-19T07:33:28;62369.91;;;-144.48;100.00
64076;BME280;50327;51.328;12.324;2023-02-19T07:35:54;62369.91;;;-144.48;100.00
64076;BME280;50327;51.328;12.324;2023-02-19T07:38:21;62369.91;;;-144.48;100.00
64076;BME280;50327;51.328;12.324;2023-02-19T07:40:54;62369.91;;;-144.48;100.00
64076;BME280;50327;51.328;12.324;2023-02-19T07:43:20;62369.91;;;-144.48;100.00
64076;BME280;50327;51.328;12.324;2023-02-19T07:45:46;62369.91;;;-144.48;100.00
64076;BME280;50327;51.328;12.324;2023-02-19T07:48:11;62369.91;;;-144.48;100.00
64076;BME280;50327;51.328;12.324;2023-02-19T07:50:37;62369.91;;;-144.48;100.00
64076;BME280;50327;51.328;12.324;2023-02-19T07:53:02;62369.91;;;-144.48;100.00
64076;BME280;50327;51.328;12.324;2023-02-19T07:55:28;62369.91;;;-144.48;100.00
64076;BME280;50327;51.328;12.324;2023-02-19T07:57:53;62369.91;;;-144.48;100.00
64076;BME280;50327;51.328;12.324;2023-02-19T08:00:19;62369.91;;;-144.48;100.00
64076;BME280;50327;51.328;12.324;2023-02-19T08:02:45;62369.91;;;-144.48;100.00
64076;BME280;50327;51.328;12.324;2023-02-19T08:05:31;62369.91;;;-144.48;100.00
64076;BME280;50327;51.328;12.324;2023-02-19T08:07:58;62369.91;;;-144.48;100.00
64076;BME280;50327;51.328;12.324;2023-02-19T08:10:23;62369.91;;;-144.48;100.00
64076;BME280;50327;51.328;12.324;2023-02-19T08:13:11;62369.91;;;-144.48;100.00
64076;BME280;50327;51.328;12.324;2023-02-19T08:16:08;62369.91;;;-144.48;100.00
64076;BME280;50327;51.328;12.324;2023-02-19T08:18:33;62369.91;;;-144.48;100.00
64076;BME280;50327;51.328;12.324;2023-02-19T08:20:59;62369.91;;;-144.48;100.00
64076;BME280;50327;51.328;12.324;2023-02-19T08:23:26;62369.91;;;-144.48;100.00
64076;BME280;50327;51.328;12.324;2023-02-19T08:25:54;62369.91;;;-144.48;100.00
64076;BME280;50327;51.328;12.324;2023-02-19T08:28:21;62369.91;;;-144.48;100.00
64076;BME280;50327;51.328;12.324;2023-02-19T08:30:46;62369.91;;;-144.48;100.00
64076;BME280;50327;51.328;12.324;2023-02-19T08:33:13;62369.91;;;-144.48;100.00
64076;BME280;50327;51.328;12.324;2023-02-19T08:35:39;62369.91;;;-144.48;100.00
64076;BME280;50327;51.328;12.324;2023-02-19T08:38:06;62369.91;;;-144.48;100.00
64076;BME280;50327;51.328;12.324;2023-02-19T08:40:32;62369.91;;;-144.48;100.00
64076;BME280;50327;51.328;12.324;2023-02-19T08:43:06;62369.91;;;-144.48;100.00
64076;BME280;50327;51.328;12.324;2023-02-19T08:45:31;62369.91;;;-144.48;100.00
64076;BME280;50327;51.328;12.324;2023-02-19T08:47:57;62369.91;;;-144.48;100.00
64076;BME280;50327;51.328;12.324;2023-02-19T08:50:23;62369.91;;;-144.48;100.00
64076;BME280;50327;51.328;12.324;2023-02-19T08:52:49;62369.91;;;-144.48;100.00
64076;BME280;50327;51.328;12.324;2023-02-19T08:55:14;62369.91;;;-144.48;100.00
64076;BME280;50327;51.328;12.324;2023-02-19T08:57:39;62369.91;;;-144.48;100.00
64076;BME280;50327;51.328;12.324;2023-02-19T09:00:06;62369.91;;;-144.48;100.00
64076;BME280;50327;51.328;12.324;2023-02-19T09:02:33;62369.91;;;-144.48;100.00
64076;BME280;50327;51.328;12.324;2023-02-19T09:04:58;62369.91;;;-144.48;100.00
64076;BME280;50327;51.328;12.324;2023-02-19T09:07:23;62369.91;;;-144.48;100.00
64076;BME280;50327;51.328;12.324;2023-02-19T09:09:49;62369.91;;;-144.48;100.00
64076;BME280;50327;51.328;12.324;2023-02-19T09:12:14;62369.91;;;-144.48;100.00
64076;BME280;50327;51.328;12.324;2023-02-19T09:14:40;62369.91;;;-144.48;100.00
64076;BME280;50327;51.328;12.324;2023-02-19T09:17:07;62369.91;;;-144.48;100.00
64076;BME280;50327;51.328;12.324;2023-02-19T09:19:32;62369.91;;;-144.48;100.00
64076;BME280;50327;51.328;12.324;2023-02-19T09:21:58;62369.91;;;-144.48;100.00
64076;BME280;50327;51.328;12.324;2023-02-19T09:24:24;62369.91;;;-144.48;100.00
64076;BME280;50327;51.328;12.324;2023-02-19T09:26:51;62369.91;;;-144.48;100.00
64076;BME280;50327;51.328;12.324;2023-02-19T09:29:17;62369.91;;;-144.48;100.00
64076;BME280;50327;51.328;12.324;2023-02-19T09:31:42;62369.91;;;-144.48;100.00
64076;BME280;50327;51.328;12.324;2023-02-19T09:34:08;62369.91;;;-144.48;100.00
64076;BME280;50327;51.328;12.324;2023-02-19T09:36:33;62369.91;;;-144.48;100.00
64076;BME280;50327;51.328;12.324;2023-02-19T09:38:59;62369.91;;;-144.48;100.00
64076;BME280;50327;51.328;12.324;2023-02-19T09:41:31;62369.91;;;-144.48;100.00
64076;BME280;50327;51.328;12.324;2023-02-19T09:43:59;62369.91;;;-144.48;100.00
64076;BME280;50327;51.328;12.324;2023-02-19T09:46:43;62369.91;;;-144.48;100.00
64076;BME280;50327;51.328;12.324;2023-02-19T09:49:13;62369.91;;;-144.48;100.00
64076;BME280;50327;51.328;12.324;2023-02-19T09:51:43;62369.91;;;-144.48;100.00
64076;BME280;50327;51.328;12.324;2023-02-19T09:54:32;62369.91;;;-144.48;100.00
64076;BME280;50327;51.328;12.324;2023-02-19T09:57:01;62369.91;;;-144.48;100.00
64076;BME280;50327;51.328;12.324;2023-02-19T09:59:35;62369.91;;;-144.48;100.00
64076;BME280;50327;51.328;12.324;2023-02-19T10:02:10;62369.91;;;-144.48;100.00
64076;BME280;50327;51.328;12.324;2023-02-19T10:04:40;62369.91;;;-144.48;100.00
64076;BME280;50327;51.328;12.324;2023-02-19T10:07:12;62369.91;;;-144.48;100.00
64076;BME280;50327;51.328;12.324;2023-02-19T10:09:37;62369.91;;;-144.48;100.00
64076;BME280;50327;51.328;12.324;2023-02-19T10:12:12;62369.91;;;-144.48;100.00
64076;BME280;50327;51.328;12.324;2023-02-19T10:14:44;62369.91;;;-144.48;100.00
64076;BME280;50327;51.328;12.324;2023-02-19T10:17:24;62369.91;;;-144.48;100.00
64076;BME280;50327;51.328;12.324;2023-02-19T10:19:51;62369.91;;;-144.48;100.00
64076;BME280;50327;51.328;12.324;2023-02-19T10:22:18;62369.91;;;-144.48;100.00
64076;BME280;50327;51.328;12.324;2023-02-19T10:24:44;62369.91;;;-144.48;100.00
64076;BME280;50327;51.328;12.324;2023-02-19T10:27:13;62369.91;;;-144.48;100.00
64076;BME280;50327;51.328;12.324;2023-02-19T10:29:39;62369.91;;;-144.48;100.00
64076;BME280;50327;51.328;12.324;2023-02-19T10:32:17;62369.91;;;-144.48;100.00
64076;BME280;50327;51.328;12.324;2023-02-19T10:34:45;62369.91;;;-144.48;100.00
64076;BME280;50327;51.328;12.324;2023-02-19T10:37:14;62369.91;;;-144.48;100.00
64076;BME280;50327;51.328;12.324;2023-02-19T10:39:44;62369.91;;;-144.48;100.00
64076;BME280;50327;51.328;12.324;2023-02-19T10:42:19;62369.91;;;-144.48;100.00
64076;BME280;50327;51.328;12.324;2023-02-19T10:44:49;62369.91;;;-144.48;100.00
64076;BME280;50327;51.328;12.324;2023-02-19T10:47:21;62369.91;;;-144.48;100.00
64076;BME280;50327;51.328;12.324;2023-02-19T10:49:49;62369.91;;;-144.48;100.00
64076;BME280;50327;51.328;12.324;2023-02-19T10:52:20;62369.91;;;-144.48;100.00
64076;BME280;50327;51.328;12.324;2023-02-19T10:54:56;62369.91;;;-144.48;100.00
64076;BME280;50327;51.328;12.324;2023-02-19T10:57:29;62369.91;;;-144.48;100.00
64076;BME280;50327;51.328;12.324;2023-02-19T11:00:05;62369.91;;;-144.48;100.00
64076;BME280;50327;51.328;12.324;2023-02-19T11:02:43;62369.91;;;-144.48;100.00
64076;BME280;50327;51.328;12.324;2023-02-19T11:07:37;62369.91;;;-144.48;100.00
64076;BME280;50327;51.328;12.324;2023-02-19T11:10:04;62369.91;;;-144.48;100.00
64076;BME280;50327;51.328;12.324;2023-02-19T11:12:32;62369.91;;;-144.48;100.00
64076;BME280;50327;51.328;12.324;2023-02-19T11:15:20;62369.91;;;-144.48;100.00
64076;BME280;50327;51.328;12.324;2023-02-19T11:17:57;62369.91;;;-144.48;100.00
64076;BME280;50327;51.328;12.324;2023-02-19T11:20:23;62369.91;;;-144.48;100.00
64076;BME280;50327;51.328;12.324;2023-02-19T11:22:49;62369.91;;;-144.48;100.00
64076;BME280;50327;51.328;12.324;2023-02-19T11:28:00;62369.91;;;-144.48;100.00
64076;BME280;50327;51.328;12.324;2023-02-19T11:30:43;62369.91;;;-144.48;100.00
64076;BME280;50327;51.328;12.324;2023-02-19T11:35:44;62369.91;;;-144.48;100.00
64076;BME280;50327;51.328;12.324;2023-02-19T11:38:12;62369.91;;;-144.48;100.00
64076;BME280;50327;51.328;12.324;2023-02-19T11:48:51;62369.91;;;-144.48;100.00
64076;BME280;50327;51.328;12.324;2023-02-19T11:56:36;62369.91;;;-144.48;100.00
64076;BME280;50327;51.328;12.324;2023-02-19T12:10:40;62369.91;;;-144.48;100.00
64076;BME280;50327;51.328;12.324;2023-02-19T12:19:17;62369.91;;;-144.48;100.00
64076;BME280;50327;51.328;12.324;2023-02-19T12:33:04;62369.91;;;-144.48;100.00
64076;BME280;50327;51.328;12.324;2023-02-19T12:43:21;62369.91;;;-144.48;100.00
64076;BME280;50327;51.328;12.324;2023-02-19T12:50:43;62369.91;;;-144.48;100.00
64076;BME280;50327;51.328;12.324;2023-02-19T12:53:41;62369.91;;;-144.48;100.00
64076;BME280;50327;51.328;12.324;2023-02-19T12:56:15;62369.91;;;-144.48;100.00
64076;BME280;50327;51.328;12.324;2023-02-19T12:59:03;62369.91;;;-144.48;100.00
64076;BME280;50327;51.328;12.324;2023-02-19T13:01:37;62369.91;;;-144.48;100.00
64076;BME280;50327;51.328;12.324;2023-02-19T13:07:18;62369.91;;;-144.48;100.00
64076;BME280;50327;51.328;12.324;2023-02-19T13:09:55;62369.91;;;-144.48;100.00
64076;BME280;50327;51.328;12.324;2023-02-19T13:12:26;62369.91;;;-144.48;100.00
64076;BME280;50327;51.328;12.324;2023-02-19T13:14:59;62369.91;;;-144.48;100.00
64076;BME280;50327;51.328;12.324;2023-02-19T13:22:50;62369.91;;;-144.48;100.00
64076;BME280;50327;51.328;12.324;2023-02-19T13:36:52;62369.91;;;-144.48;100.00
64076;BME280;50327;51.328;12.324;2023-02-19T13:39:19;62369.91;;;-144.48;100.00
64076;BME280;50327;51.328;12.324;2023-02-19T13:41:51;62369.91;;;-144.48;100.00
64076;BME280;50327;51.328;12.324;2023-02-19T13:44:19;62369.91;;;-144.48;100.00
64076;BME280;50327;51.328;12.324;2023-02-19T13:46:48;62369.91;;;-144.48;100.00
64076;BME280;50327;51.328;12.324;2023-02-19T13:51:59;62369.91;;;-144.48;100.00
64076;BME280;50327;51.328;12.324;2023-02-19T13:54:30;62369.91;;;-144.48;100.00
64076;BME280;50327;51.328;12.324;2023-02-19T13:59:48;62369.91;;;-144.48;100.00
64076;BME280;50327;51.328;12.324;2023-02-19T14:27:48;62369.91;;;-144.48;100.00
64076;BME280;50327;51.328;12.324;2023-02-19T14:30:14;62369.91;;;-144.48;100.00
64076;BME280;50327;51.328;12.324;2023-02-19T14:32:40;62369.91;;;-144.48;100.00
64076;BME280;50327;51.328;12.324;2023-02-19T14:35:19;62369.91;;;-144.48;100.00
64076;BME280;50327;51.328;12.324;2023-02-19T14:37:46;62369.91;;;-144.48;100.00
64076;BME280;50327;51.328;12.324;2023-02-19T14:40:18;62369.91;;;-144.48;100.00
64076;BME280;50327;51.328;12.324;2023-02-19T14:42:46;62369.91;;;-144.48;100.00
64076;BME280;50327;51.328;12.324;2023-02-19T14:45:13;62369.91;;;-144.48;100.00